sensor_id;sensor_type;location;lat;lon;timestamp;P1;durP1;ratioP1;P2;durP2;ratioP2
60257;SDS011;46115;44.484;11.314;2023-02-15T00:07:29;27.73;;;15.90;;
60257;SDS011;46115;44.484;11.314;2023-02-15T00:11:32;28.92;;;16.50;;
60257;SDS011;46115;44.484;11.314;2023-02-15T00:15:50;27.95;;;16.30;;
60257;SDS011;46115;44.484;11.314;2023-02-15T00:19:52;27.45;;;15.68;;
60257;SDS011;46115;44.484;11.314;2023-02-15T00:23:55;28.00;;;16.02;;
60257;SDS011;46115;44.484;11.314;2023-02-15T00:27:58;27.50;;;16.50;;
60257;SDS011;46115;44.484;11.314;2023-02-15T00:32:01;28.77;;;15.63;;
60257;SDS011;46115;44.484;11.314;2023-02-15T00:36:04;27.77;;;15.65;;
60257;SDS011;46115;44.484;11.314;2023-02-15T00:40:08;25.70;;;15.43;;
60257;SDS011;46115;44.484;11.314;2023-02-15T00:44:13;24.92;;;14.98;;
60257;SDS011;46115;44.484;11.314;2023-02-15T00:48:15;29.15;;;14.95;;
60257;SDS011;46115;44.484;11.314;2023-02-15T00:56:20;25.87;;;15.60;;
60257;SDS011;46115;44.484;11.314;2023-02-15T01:04:26;26.00;;;14.63;;
60257;SDS011;46115;44.484;11.314;2023-02-15T01:08:28;28.23;;;14.48;;
60257;SDS011;46115;44.484;11.314;2023-02-15T01:16:34;23.27;;;14.87;;
60257;SDS011;46115;44.484;11.314;2023-02-15T01:20:37;25.17;;;14.35;;
60257;SDS011;46115;44.484;11.314;2023-02-15T01:24:42;25.58;;;14.48;;
60257;SDS011;46115;44.484;11.314;2023-02-15T01:32:48;22.53;;;13.67;;
60257;SDS011;46115;44.484;11.314;2023-02-15T01:36:50;23.67;;;13.38;;
60257;SDS011;46115;44.484;11.314;2023-02-15T01:40:52;21.75;;;13.02;;
60257;SDS011;46115;44.484;11.314;2023-02-15T01:45:18;25.23;;;13.50;;
60257;SDS011;46115;44.484;11.314;2023-02-15T01:49:24;22.38;;;13.45;;
60257;SDS011;46115;44.484;11.314;2023-02-15T01:53:30;22.73;;;13.25;;
60257;SDS011;46115;44.484;11.314;2023-02-15T01:57:37;21.92;;;13.18;;
60257;SDS011;46115;44.484;11.314;2023-02-15T02:01:41;22.45;;;13.07;;
60257;SDS011;46115;44.484;11.314;2023-02-15T02:09:47;22.80;;;12.65;;
60257;SDS011;46115;44.484;11.314;2023-02-15T02:13:50;21.42;;;12.27;;
60257;SDS011;46115;44.484;11.314;2023-02-15T02:18:00;23.65;;;12.90;;
60257;SDS011;46115;44.484;11.314;2023-02-15T02:26:58;19.67;;;11.73;;
60257;SDS011;46115;44.484;11.314;2023-02-15T02:31:31;20.90;;;12.40;;
60257;SDS011;46115;44.484;11.314;2023-02-15T02:35:51;18.15;;;11.18;;
60257;SDS011;46115;44.484;11.314;2023-02-15T02:40:02;18.10;;;11.32;;
60257;SDS011;46115;44.484;11.314;2023-02-15T02:44:12;19.90;;;11.38;;
60257;SDS011;46115;44.484;11.314;2023-02-15T02:48:18;17.92;;;11.35;;
60257;SDS011;46115;44.484;11.314;2023-02-15T02:52:36;20.20;;;11.80;;
60257;SDS011;46115;44.484;11.314;2023-02-15T02:56:41;22.20;;;11.88;;
60257;SDS011;46115;44.484;11.314;2023-02-15T03:00:48;17.30;;;10.70;;
60257;SDS011;46115;44.484;11.314;2023-02-15T03:04:55;19.00;;;11.13;;
60257;SDS011;46115;44.484;11.314;2023-02-15T03:09:06;17.85;;;10.88;;
60257;SDS011;46115;44.484;11.314;2023-02-15T03:13:15;19.15;;;11.23;;
60257;SDS011;46115;44.484;11.314;2023-02-15T03:17:18;19.45;;;11.15;;
60257;SDS011;46115;44.484;11.314;2023-02-15T03:21:24;17.13;;;10.68;;
60257;SDS011;46115;44.484;11.314;2023-02-15T03:25:42;18.00;;;11.10;;
60257;SDS011;46115;44.484;11.314;2023-02-15T03:29:47;18.58;;;10.60;;
60257;SDS011;46115;44.484;11.314;2023-02-15T03:33:55;17.40;;;10.85;;
60257;SDS011;46115;44.484;11.314;2023-02-15T03:38:01;18.20;;;10.38;;
60257;SDS011;46115;44.484;11.314;2023-02-15T03:42:11;16.30;;;10.18;;
60257;SDS011;46115;44.484;11.314;2023-02-15T03:46:20;19.45;;;10.50;;
60257;SDS011;46115;44.484;11.314;2023-02-15T03:50:26;18.67;;;9.93;;
60257;SDS011;46115;44.484;11.314;2023-02-15T03:54:49;17.80;;;9.77;;
60257;SDS011;46115;44.484;11.314;2023-02-15T03:58:53;20.95;;;10.50;;
60257;SDS011;46115;44.484;11.314;2023-02-15T04:03:17;19.20;;;10.57;;
60257;SDS011;46115;44.484;11.314;2023-02-15T04:07:26;16.35;;;10.20;;
60257;SDS011;46115;44.484;11.314;2023-02-15T04:11:28;17.55;;;9.75;;
60257;SDS011;46115;44.484;11.314;2023-02-15T04:15:33;15.98;;;9.32;;
60257;SDS011;46115;44.484;11.314;2023-02-15T04:19:53;14.40;;;8.68;;
60257;SDS011;46115;44.484;11.314;2023-02-15T04:24:13;16.67;;;9.13;;
60257;SDS011;46115;44.484;11.314;2023-02-15T04:28:33;15.30;;;9.02;;
60257;SDS011;46115;44.484;11.314;2023-02-15T04:32:37;16.08;;;9.02;;
60257;SDS011;46115;44.484;11.314;2023-02-15T04:36:40;16.73;;;9.07;;
60257;SDS011;46115;44.484;11.314;2023-02-15T04:40:43;13.43;;;8.73;;
60257;SDS011;46115;44.484;11.314;2023-02-15T04:44:45;17.73;;;8.98;;
60257;SDS011;46115;44.484;11.314;2023-02-15T04:48:49;14.85;;;8.98;;
60257;SDS011;46115;44.484;11.314;2023-02-15T04:52:51;15.60;;;8.52;;
60257;SDS011;46115;44.484;11.314;2023-02-15T04:56:53;14.50;;;8.40;;
60257;SDS011;46115;44.484;11.314;2023-02-15T05:00:56;15.45;;;8.90;;
60257;SDS011;46115;44.484;11.314;2023-02-15T05:05:00;16.13;;;8.57;;
60257;SDS011;46115;44.484;11.314;2023-02-15T05:09:02;12.18;;;7.63;;
60257;SDS011;46115;44.484;11.314;2023-02-15T05:17:07;14.43;;;8.33;;
60257;SDS011;46115;44.484;11.314;2023-02-15T05:21:10;13.82;;;8.43;;
60257;SDS011;46115;44.484;11.314;2023-02-15T05:25:14;13.43;;;8.15;;
60257;SDS011;46115;44.484;11.314;2023-02-15T05:29:34;15.02;;;8.35;;
60257;SDS011;46115;44.484;11.314;2023-02-15T05:33:36;14.98;;;7.30;;
60257;SDS011;46115;44.484;11.314;2023-02-15T05:37:40;14.23;;;7.10;;
60257;SDS011;46115;44.484;11.314;2023-02-15T05:41:43;13.65;;;7.57;;
60257;SDS011;46115;44.484;11.314;2023-02-15T05:45:45;12.27;;;7.60;;
60257;SDS011;46115;44.484;11.314;2023-02-15T05:49:48;12.48;;;6.97;;
60257;SDS011;46115;44.484;11.314;2023-02-15T05:53:51;12.80;;;7.68;;
60257;SDS011;46115;44.484;11.314;2023-02-15T05:57:54;11.82;;;7.60;;
60257;SDS011;46115;44.484;11.314;2023-02-15T06:01:56;11.77;;;7.05;;
60257;SDS011;46115;44.484;11.314;2023-02-15T06:05:58;12.07;;;7.53;;
60257;SDS011;46115;44.484;11.314;2023-02-15T06:10:02;12.05;;;7.07;;
60257;SDS011;46115;44.484;11.314;2023-02-15T06:14:05;14.38;;;7.45;;
60257;SDS011;46115;44.484;11.314;2023-02-15T06:18:07;10.88;;;6.95;;
60257;SDS011;46115;44.484;11.314;2023-02-15T06:22:10;14.52;;;6.70;;
60257;SDS011;46115;44.484;11.314;2023-02-15T06:26:15;10.38;;;6.70;;
60257;SDS011;46115;44.484;11.314;2023-02-15T06:30:18;10.10;;;6.75;;
60257;SDS011;46115;44.484;11.314;2023-02-15T06:34:20;13.95;;;7.32;;
60257;SDS011;46115;44.484;11.314;2023-02-15T06:38:22;13.38;;;6.65;;
60257;SDS011;46115;44.484;11.314;2023-02-15T06:42:26;10.38;;;6.25;;
60257;SDS011;46115;44.484;11.314;2023-02-15T06:46:28;12.70;;;6.28;;
60257;SDS011;46115;44.484;11.314;2023-02-15T06:50:31;13.02;;;6.50;;
60257;SDS011;46115;44.484;11.314;2023-02-15T06:54:33;10.25;;;6.60;;
60257;SDS011;46115;44.484;11.314;2023-02-15T07:02:39;10.68;;;6.35;;
60257;SDS011;46115;44.484;11.314;2023-02-15T07:06:41;10.60;;;6.22;;
60257;SDS011;46115;44.484;11.314;2023-02-15T07:10:44;11.00;;;6.15;;
60257;SDS011;46115;44.484;11.314;2023-02-15T07:14:47;10.02;;;5.70;;
60257;SDS011;46115;44.484;11.314;2023-02-15T07:18:50;11.02;;;5.90;;
60257;SDS011;46115;44.484;11.314;2023-02-15T07:26:54;9.90;;;5.87;;
60257;SDS011;46115;44.484;11.314;2023-02-15T07:31:00;11.50;;;5.95;;
60257;SDS011;46115;44.484;11.314;2023-02-15T07:35:03;10.27;;;6.05;;
60257;SDS011;46115;44.484;11.314;2023-02-15T07:39:05;10.30;;;5.72;;
60257;SDS011;46115;44.484;11.314;2023-02-15T07:43:08;12.18;;;6.25;;
60257;SDS011;46115;44.484;11.314;2023-02-15T07:47:12;9.65;;;5.90;;
60257;SDS011;46115;44.484;11.314;2023-02-15T07:51:14;8.90;;;5.63;;
60257;SDS011;46115;44.484;11.314;2023-02-15T07:55:17;9.40;;;5.88;;
60257;SDS011;46115;44.484;11.314;2023-02-15T07:59:19;7.15;;;5.72;;
60257;SDS011;46115;44.484;11.314;2023-02-15T08:07:27;7.80;;;5.63;;
60257;SDS011;46115;44.484;11.314;2023-02-15T08:11:30;8.80;;;5.25;;
60257;SDS011;46115;44.484;11.314;2023-02-15T08:15:38;7.85;;;5.43;;
60257;SDS011;46115;44.484;11.314;2023-02-15T08:19:42;7.82;;;5.28;;
60257;SDS011;46115;44.484;11.314;2023-02-15T08:23:44;7.68;;;5.10;;
60257;SDS011;46115;44.484;11.314;2023-02-15T08:27:47;6.72;;;5.15;;
60257;SDS011;46115;44.484;11.314;2023-02-15T08:31:49;8.45;;;5.15;;
60257;SDS011;46115;44.484;11.314;2023-02-15T08:35:55;6.00;;;4.93;;
60257;SDS011;46115;44.484;11.314;2023-02-15T08:39:59;8.68;;;4.90;;
60257;SDS011;46115;44.484;11.314;2023-02-15T08:44:02;6.40;;;4.80;;
60257;SDS011;46115;44.484;11.314;2023-02-15T08:48:06;6.07;;;5.38;;
60257;SDS011;46115;44.484;11.314;2023-02-15T08:52:10;7.63;;;5.30;;
60257;SDS011;46115;44.484;11.314;2023-02-15T08:56:12;7.03;;;5.38;;
60257;SDS011;46115;44.484;11.314;2023-02-15T09:00:15;7.55;;;5.55;;
60257;SDS011;46115;44.484;11.314;2023-02-15T09:04:18;7.07;;;5.60;;
60257;SDS011;46115;44.484;11.314;2023-02-15T09:08:23;8.60;;;6.40;;
60257;SDS011;46115;44.484;11.314;2023-02-15T09:12:25;8.45;;;6.03;;
60257;SDS011;46115;44.484;11.314;2023-02-15T09:16:28;9.48;;;6.93;;
60257;SDS011;46115;44.484;11.314;2023-02-15T09:20:34;12.05;;;8.88;;
60257;SDS011;46115;44.484;11.314;2023-02-15T09:24:39;31.92;;;24.58;;
60257;SDS011;46115;44.484;11.314;2023-02-15T09:28:41;34.47;;;28.55;;
60257;SDS011;46115;44.484;11.314;2023-02-15T09:32:43;38.97;;;28.50;;
60257;SDS011;46115;44.484;11.314;2023-02-15T09:36:46;37.03;;;28.02;;
60257;SDS011;46115;44.484;11.314;2023-02-15T09:40:54;34.33;;;27.15;;
60257;SDS011;46115;44.484;11.314;2023-02-15T09:45:21;38.70;;;29.20;;
60257;SDS011;46115;44.484;11.314;2023-02-15T09:49:31;34.85;;;27.27;;
60257;SDS011;46115;44.484;11.314;2023-02-15T09:53:47;36.25;;;25.45;;
60257;SDS011;46115;44.484;11.314;2023-02-15T09:58:01;33.53;;;23.52;;
60257;SDS011;46115;44.484;11.314;2023-02-15T10:02:16;34.03;;;21.35;;
60257;SDS011;46115;44.484;11.314;2023-02-15T10:06:31;33.45;;;20.45;;
60257;SDS011;46115;44.484;11.314;2023-02-15T10:10:43;36.00;;;20.17;;
60257;SDS011;46115;44.484;11.314;2023-02-15T10:19:32;41.17;;;23.65;;
60257;SDS011;46115;44.484;11.314;2023-02-15T10:23:47;44.42;;;24.35;;
60257;SDS011;46115;44.484;11.314;2023-02-15T10:28:04;48.70;;;25.05;;
60257;SDS011;46115;44.484;11.314;2023-02-15T10:32:13;40.67;;;23.33;;
60257;SDS011;46115;44.484;11.314;2023-02-15T10:36:27;45.45;;;22.98;;
60257;SDS011;46115;44.484;11.314;2023-02-15T10:40:54;42.70;;;22.75;;
60257;SDS011;46115;44.484;11.314;2023-02-15T10:46:23;43.40;;;23.15;;
60257;SDS011;46115;44.484;11.314;2023-02-15T10:50:42;49.58;;;24.50;;
60257;SDS011;46115;44.484;11.314;2023-02-15T10:59:11;45.78;;;23.35;;
60257;SDS011;46115;44.484;11.314;2023-02-15T11:03:31;43.70;;;23.00;;
60257;SDS011;46115;44.484;11.314;2023-02-15T11:07:44;41.53;;;21.25;;
60257;SDS011;46115;44.484;11.314;2023-02-15T11:11:51;42.90;;;22.17;;
60257;SDS011;46115;44.484;11.314;2023-02-15T11:15:59;43.78;;;21.67;;
60257;SDS011;46115;44.484;11.314;2023-02-15T11:20:08;42.03;;;21.73;;
60257;SDS011;46115;44.484;11.314;2023-02-15T11:24:24;39.45;;;21.25;;
60257;SDS011;46115;44.484;11.314;2023-02-15T11:28:31;42.72;;;20.77;;
60257;SDS011;46115;44.484;11.314;2023-02-15T11:32:37;41.17;;;20.58;;
60257;SDS011;46115;44.484;11.314;2023-02-15T11:36:41;44.38;;;20.98;;
60257;SDS011;46115;44.484;11.314;2023-02-15T11:40:47;44.05;;;21.50;;
60257;SDS011;46115;44.484;11.314;2023-02-15T11:44:54;44.78;;;21.63;;
60257;SDS011;46115;44.484;11.314;2023-02-15T11:49:01;46.53;;;22.25;;
60257;SDS011;46115;44.484;11.314;2023-02-15T11:53:04;52.50;;;23.88;;
60257;SDS011;46115;44.484;11.314;2023-02-15T11:57:14;49.17;;;23.52;;
60257;SDS011;46115;44.484;11.314;2023-02-15T12:01:20;47.75;;;22.90;;
60257;SDS011;46115;44.484;11.314;2023-02-15T12:05:26;48.30;;;23.38;;
60257;SDS011;46115;44.484;11.314;2023-02-15T12:09:30;48.10;;;22.58;;
60257;SDS011;46115;44.484;11.314;2023-02-15T12:13:37;42.45;;;21.83;;
60257;SDS011;46115;44.484;11.314;2023-02-15T12:17:56;48.17;;;22.42;;
60257;SDS011;46115;44.484;11.314;2023-02-15T12:21:58;47.67;;;22.73;;
60257;SDS011;46115;44.484;11.314;2023-02-15T12:26:03;49.30;;;24.25;;
60257;SDS011;46115;44.484;11.314;2023-02-15T12:30:07;48.03;;;23.23;;
60257;SDS011;46115;44.484;11.314;2023-02-15T12:34:23;54.28;;;24.20;;
60257;SDS011;46115;44.484;11.314;2023-02-15T12:38:28;48.63;;;24.75;;
60257;SDS011;46115;44.484;11.314;2023-02-15T12:42:40;50.13;;;23.27;;
60257;SDS011;46115;44.484;11.314;2023-02-15T12:46:56;51.35;;;24.30;;
60257;SDS011;46115;44.484;11.314;2023-02-15T12:51:06;46.95;;;23.85;;
60257;SDS011;46115;44.484;11.314;2023-02-15T12:55:11;53.85;;;25.13;;
60257;SDS011;46115;44.484;11.314;2023-02-15T12:59:22;50.45;;;23.95;;
60257;SDS011;46115;44.484;11.314;2023-02-15T13:03:27;52.50;;;24.98;;
60257;SDS011;46115;44.484;11.314;2023-02-15T13:07:29;55.53;;;24.27;;
60257;SDS011;46115;44.484;11.314;2023-02-15T13:11:33;54.95;;;26.10;;
60257;SDS011;46115;44.484;11.314;2023-02-15T13:15:38;50.53;;;24.90;;
60257;SDS011;46115;44.484;11.314;2023-02-15T13:19:44;54.70;;;26.67;;
60257;SDS011;46115;44.484;11.314;2023-02-15T13:23:51;55.03;;;25.45;;
60257;SDS011;46115;44.484;11.314;2023-02-15T13:28:00;57.53;;;26.77;;
60257;SDS011;46115;44.484;11.314;2023-02-15T13:32:05;55.50;;;26.85;;
60257;SDS011;46115;44.484;11.314;2023-02-15T13:36:15;55.58;;;26.63;;
60257;SDS011;46115;44.484;11.314;2023-02-15T13:40:25;56.47;;;26.98;;
60257;SDS011;46115;44.484;11.314;2023-02-15T13:44:45;52.83;;;26.13;;
60257;SDS011;46115;44.484;11.314;2023-02-15T13:49:05;58.80;;;27.50;;
60257;SDS011;46115;44.484;11.314;2023-02-15T13:58:02;59.60;;;27.48;;
60257;SDS011;46115;44.484;11.314;2023-02-15T14:06:44;58.53;;;28.63;;
60257;SDS011;46115;44.484;11.314;2023-02-15T14:10:59;59.90;;;27.98;;
60257;SDS011;46115;44.484;11.314;2023-02-15T14:15:13;56.90;;;27.17;;
60257;SDS011;46115;44.484;11.314;2023-02-15T14:19:27;59.25;;;28.67;;
60257;SDS011;46115;44.484;11.314;2023-02-15T14:23:38;58.75;;;27.27;;
60257;SDS011;46115;44.484;11.314;2023-02-15T14:27:52;58.35;;;27.83;;
60257;SDS011;46115;44.484;11.314;2023-02-15T14:32:01;56.67;;;27.00;;
60257;SDS011;46115;44.484;11.314;2023-02-15T14:36:11;58.28;;;26.73;;
60257;SDS011;46115;44.484;11.314;2023-02-15T14:40:19;53.72;;;26.95;;
60257;SDS011;46115;44.484;11.314;2023-02-15T14:44:54;55.80;;;26.92;;
60257;SDS011;46115;44.484;11.314;2023-02-15T14:49:04;52.72;;;25.77;;
60257;SDS011;46115;44.484;11.314;2023-02-15T14:57:39;55.88;;;25.65;;
60257;SDS011;46115;44.484;11.314;2023-02-15T15:01:50;56.72;;;26.25;;
60257;SDS011;46115;44.484;11.314;2023-02-15T15:05:56;53.55;;;24.55;;
60257;SDS011;46115;44.484;11.314;2023-02-15T15:10:04;51.88;;;24.92;;
60257;SDS011;46115;44.484;11.314;2023-02-15T15:14:37;55.67;;;25.70;;
60257;SDS011;46115;44.484;11.314;2023-02-15T15:18:45;53.45;;;26.00;;
60257;SDS011;46115;44.484;11.314;2023-02-15T15:22:49;53.50;;;26.20;;
60257;SDS011;46115;44.484;11.314;2023-02-15T15:27:04;56.40;;;26.30;;
60257;SDS011;46115;44.484;11.314;2023-02-15T15:31:45;58.87;;;26.63;;
60257;SDS011;46115;44.484;11.314;2023-02-15T15:36:00;58.20;;;26.17;;
60257;SDS011;46115;44.484;11.314;2023-02-15T15:49:35;61.50;;;27.08;;
60257;SDS011;46115;44.484;11.314;2023-02-15T15:53:44;62.38;;;27.08;;
60257;SDS011;46115;44.484;11.314;2023-02-15T15:57:52;60.05;;;26.55;;
60257;SDS011;46115;44.484;11.314;2023-02-15T16:02:03;61.10;;;26.63;;
60257;SDS011;46115;44.484;11.314;2023-02-15T16:06:06;54.35;;;26.02;;
60257;SDS011;46115;44.484;11.314;2023-02-15T16:10:23;61.17;;;26.33;;
60257;SDS011;46115;44.484;11.314;2023-02-15T16:18:32;59.85;;;26.27;;
60257;SDS011;46115;44.484;11.314;2023-02-15T16:22:43;54.35;;;25.08;;
60257;SDS011;46115;44.484;11.314;2023-02-15T16:31:22;57.22;;;26.20;;
60257;SDS011;46115;44.484;11.314;2023-02-15T16:35:25;55.53;;;25.10;;
60257;SDS011;46115;44.484;11.314;2023-02-15T16:39:27;56.92;;;25.20;;
60257;SDS011;46115;44.484;11.314;2023-02-15T16:43:29;57.53;;;25.55;;
60257;SDS011;46115;44.484;11.314;2023-02-15T16:47:37;54.72;;;25.65;;
60257;SDS011;46115;44.484;11.314;2023-02-15T16:51:43;56.53;;;23.70;;
60257;SDS011;46115;44.484;11.314;2023-02-15T16:55:48;58.63;;;25.23;;
60257;SDS011;46115;44.484;11.314;2023-02-15T16:59:53;56.30;;;24.52;;
60257;SDS011;46115;44.484;11.314;2023-02-15T17:04:13;56.33;;;24.10;;
60257;SDS011;46115;44.484;11.314;2023-02-15T17:08:27;58.65;;;25.45;;
60257;SDS011;46115;44.484;11.314;2023-02-15T23:06:09;31.17;;;15.48;;
60257;SDS011;46115;44.484;11.314;2023-02-15T23:10:12;31.25;;;15.75;;
60257;SDS011;46115;44.484;11.314;2023-02-15T23:14:22;31.27;;;15.82;;
60257;SDS011;46115;44.484;11.314;2023-02-15T23:18:28;27.35;;;15.55;;
60257;SDS011;46115;44.484;11.314;2023-02-15T23:22:41;30.48;;;15.15;;
60257;SDS011;46115;44.484;11.314;2023-02-15T23:26:44;27.13;;;13.88;;
60257;SDS011;46115;44.484;11.314;2023-02-15T23:30:46;28.70;;;14.95;;
60257;SDS011;46115;44.484;11.314;2023-02-15T23:34:49;26.83;;;14.50;;
60257;SDS011;46115;44.484;11.314;2023-02-15T23:38:53;30.13;;;14.43;;
60257;SDS011;46115;44.484;11.314;2023-02-15T23:42:56;30.23;;;15.32;;
60257;SDS011;46115;44.484;11.314;2023-02-15T23:46:57;28.90;;;15.10;;
60257;SDS011;46115;44.484;11.314;2023-02-15T23:50:59;28.67;;;14.57;;
60257;SDS011;46115;44.484;11.314;2023-02-15T23:55:04;25.63;;;13.93;;
60257;SDS011;46115;44.484;11.314;2023-02-15T23:59:07;24.63;;;13.77;;
